sensor_id;sensor_type;location;lat;lon;timestamp;P1;durP1;ratioP1;P2;durP2;ratioP2
37231;SDS011;23125;48.156;15.954;2024-02-15T00:00:16;6.47;;;2.20;;
37231;SDS011;23125;48.156;15.954;2024-02-15T00:02:45;4.38;;;1.40;;
37231;SDS011;23125;48.156;15.954;2024-02-15T00:05:11;1.80;;;1.17;;
37231;SDS011;23125;48.156;15.954;2024-02-15T00:07:39;4.55;;;1.65;;
37231;SDS011;23125;48.156;15.954;2024-02-15T00:10:05;3.38;;;1.65;;
37231;SDS011;23125;48.156;15.954;2024-02-15T00:12:34;4.65;;;1.67;;
37231;SDS011;23125;48.156;15.954;2024-02-15T00:15:00;2.78;;;1.60;;
37231;SDS011;23125;48.156;15.954;2024-02-15T00:17:29;4.05;;;1.98;;
37231;SDS011;23125;48.156;15.954;2024-02-15T00:19:55;3.27;;;1.80;;
37231;SDS011;23125;48.156;15.954;2024-02-15T00:22:21;3.42;;;1.58;;
37231;SDS011;23125;48.156;15.954;2024-02-15T00:24:47;4.97;;;2.30;;
37231;SDS011;23125;48.156;15.954;2024-02-15T00:27:16;3.53;;;2.08;;
37231;SDS011;23125;48.156;15.954;2024-02-15T00:29:42;2.78;;;1.50;;
37231;SDS011;23125;48.156;15.954;2024-02-15T00:32:09;3.85;;;1.52;;
37231;SDS011;23125;48.156;15.954;2024-02-15T00:34:38;3.92;;;1.63;;
37231;SDS011;23125;48.156;15.954;2024-02-15T00:37:04;4.10;;;1.45;;
37231;SDS011;23125;48.156;15.954;2024-02-15T00:39:30;2.75;;;1.40;;
37231;SDS011;23125;48.156;15.954;2024-02-15T00:41:57;3.05;;;1.10;;
37231;SDS011;23125;48.156;15.954;2024-02-15T00:44:25;3.53;;;1.50;;
37231;SDS011;23125;48.156;15.954;2024-02-15T00:46:52;2.33;;;1.13;;
37231;SDS011;23125;48.156;15.954;2024-02-15T00:49:18;2.00;;;1.38;;
37231;SDS011;23125;48.156;15.954;2024-02-15T00:51:47;2.75;;;0.90;;
37231;SDS011;23125;48.156;15.954;2024-02-15T00:54:14;4.05;;;1.13;;
37231;SDS011;23125;48.156;15.954;2024-02-15T00:56:41;2.63;;;1.05;;
37231;SDS011;23125;48.156;15.954;2024-02-15T00:59:07;3.25;;;1.20;;
37231;SDS011;23125;48.156;15.954;2024-02-15T01:01:33;1.52;;;0.85;;
37231;SDS011;23125;48.156;15.954;2024-02-15T01:04:02;2.47;;;0.82;;
37231;SDS011;23125;48.156;15.954;2024-02-15T01:06:28;2.42;;;0.90;;
37231;SDS011;23125;48.156;15.954;2024-02-15T01:08:53;2.00;;;0.77;;
37231;SDS011;23125;48.156;15.954;2024-02-15T01:11:19;2.05;;;0.80;;
37231;SDS011;23125;48.156;15.954;2024-02-15T01:13:46;2.00;;;0.88;;
37231;SDS011;23125;48.156;15.954;2024-02-15T01:16:12;2.15;;;0.73;;
37231;SDS011;23125;48.156;15.954;2024-02-15T01:18:38;2.20;;;0.80;;
37231;SDS011;23125;48.156;15.954;2024-02-15T01:21:03;2.28;;;0.90;;
37231;SDS011;23125;48.156;15.954;2024-02-15T01:23:29;3.17;;;1.00;;
37231;SDS011;23125;48.156;15.954;2024-02-15T01:25:55;4.15;;;0.70;;
37231;SDS011;23125;48.156;15.954;2024-02-15T01:28:22;1.48;;;0.70;;
37231;SDS011;23125;48.156;15.954;2024-02-15T01:30:48;3.28;;;0.88;;
37231;SDS011;23125;48.156;15.954;2024-02-15T01:33:15;1.48;;;0.82;;
37231;SDS011;23125;48.156;15.954;2024-02-15T01:35:42;2.08;;;0.90;;
37231;SDS011;23125;48.156;15.954;2024-02-15T01:38:08;2.00;;;0.90;;
37231;SDS011;23125;48.156;15.954;2024-02-15T01:40:34;2.60;;;0.98;;
37231;SDS011;23125;48.156;15.954;2024-02-15T01:43:00;3.67;;;0.80;;
37231;SDS011;23125;48.156;15.954;2024-02-15T01:45:26;1.60;;;0.80;;
37231;SDS011;23125;48.156;15.954;2024-02-15T01:47:53;2.75;;;0.80;;
37231;SDS011;23125;48.156;15.954;2024-02-15T01:50:21;2.58;;;0.90;;
37231;SDS011;23125;48.156;15.954;2024-02-15T01:52:49;1.83;;;0.95;;
37231;SDS011;23125;48.156;15.954;2024-02-15T01:55:18;1.48;;;0.98;;
37231;SDS011;23125;48.156;15.954;2024-02-15T01:57:44;2.22;;;0.82;;
37231;SDS011;23125;48.156;15.954;2024-02-15T02:00:11;1.10;;;0.70;;
37231;SDS011;23125;48.156;15.954;2024-02-15T02:02:39;2.90;;;0.90;;
37231;SDS011;23125;48.156;15.954;2024-02-15T02:05:08;1.77;;;1.00;;
37231;SDS011;23125;48.156;15.954;2024-02-15T02:07:34;2.30;;;1.35;;
37231;SDS011;23125;48.156;15.954;2024-02-15T02:10:01;3.40;;;0.80;;
37231;SDS011;23125;48.156;15.954;2024-02-15T02:12:27;1.70;;;0.88;;
37231;SDS011;23125;48.156;15.954;2024-02-15T02:14:53;1.52;;;0.75;;
37231;SDS011;23125;48.156;15.954;2024-02-15T02:17:20;2.90;;;0.90;;
37231;SDS011;23125;48.156;15.954;2024-02-15T02:19:46;1.42;;;0.93;;
37231;SDS011;23125;48.156;15.954;2024-02-15T02:22:15;1.45;;;0.70;;
37231;SDS011;23125;48.156;15.954;2024-02-15T02:27:24;1.77;;;0.80;;
37231;SDS011;23125;48.156;15.954;2024-02-15T02:29:53;1.63;;;0.80;;
37231;SDS011;23125;48.156;15.954;2024-02-15T02:32:19;1.75;;;0.85;;
37231;SDS011;23125;48.156;15.954;2024-02-15T02:34:46;2.83;;;0.90;;
37231;SDS011;23125;48.156;15.954;2024-02-15T02:37:12;2.92;;;0.77;;
37231;SDS011;23125;48.156;15.954;2024-02-15T02:39:39;3.97;;;1.25;;
37231;SDS011;23125;48.156;15.954;2024-02-15T02:42:05;1.55;;;1.02;;
37231;SDS011;23125;48.156;15.954;2024-02-15T02:44:31;1.98;;;1.05;;
37231;SDS011;23125;48.156;15.954;2024-02-15T02:46:56;2.53;;;1.25;;
37231;SDS011;23125;48.156;15.954;2024-02-15T02:49:22;2.70;;;0.88;;
37231;SDS011;23125;48.156;15.954;2024-02-15T02:51:48;2.25;;;0.80;;
37231;SDS011;23125;48.156;15.954;2024-02-15T02:54:14;2.95;;;1.27;;
37231;SDS011;23125;48.156;15.954;2024-02-15T02:56:40;3.33;;;1.23;;
37231;SDS011;23125;48.156;15.954;2024-02-15T02:59:09;2.03;;;0.80;;
37231;SDS011;23125;48.156;15.954;2024-02-15T03:01:34;2.55;;;1.20;;
37231;SDS011;23125;48.156;15.954;2024-02-15T03:04:00;3.03;;;1.52;;
37231;SDS011;23125;48.156;15.954;2024-02-15T03:06:26;4.78;;;1.52;;
37231;SDS011;23125;48.156;15.954;2024-02-15T03:08:53;1.92;;;1.27;;
37231;SDS011;23125;48.156;15.954;2024-02-15T03:13:48;2.40;;;1.20;;
37231;SDS011;23125;48.156;15.954;2024-02-15T03:16:14;2.65;;;1.20;;
37231;SDS011;23125;48.156;15.954;2024-02-15T03:18:42;2.03;;;1.20;;
37231;SDS011;23125;48.156;15.954;2024-02-15T03:21:08;2.28;;;0.95;;
37231;SDS011;23125;48.156;15.954;2024-02-15T03:23:36;3.03;;;1.38;;
37231;SDS011;23125;48.156;15.954;2024-02-15T03:26:02;2.30;;;1.10;;
37231;SDS011;23125;48.156;15.954;2024-02-15T03:28:31;3.23;;;1.33;;
37231;SDS011;23125;48.156;15.954;2024-02-15T03:30:57;2.88;;;1.30;;
37231;SDS011;23125;48.156;15.954;2024-02-15T03:33:25;2.78;;;1.55;;
37231;SDS011;23125;48.156;15.954;2024-02-15T03:35:58;2.13;;;1.10;;
37231;SDS011;23125;48.156;15.954;2024-02-15T03:38:26;2.65;;;1.33;;
37231;SDS011;23125;48.156;15.954;2024-02-15T03:40:57;2.10;;;1.00;;
37231;SDS011;23125;48.156;15.954;2024-02-15T03:43:23;3.20;;;1.30;;
37231;SDS011;23125;48.156;15.954;2024-02-15T03:45:49;4.70;;;1.65;;
37231;SDS011;23125;48.156;15.954;2024-02-15T03:48:16;1.67;;;1.02;;
37231;SDS011;23125;48.156;15.954;2024-02-15T03:50:43;5.70;;;1.75;;
37231;SDS011;23125;48.156;15.954;2024-02-15T03:53:10;2.67;;;1.05;;
37231;SDS011;23125;48.156;15.954;2024-02-15T03:55:36;2.42;;;1.60;;
37231;SDS011;23125;48.156;15.954;2024-02-15T03:58:02;3.97;;;1.50;;
37231;SDS011;23125;48.156;15.954;2024-02-15T04:00:28;1.73;;;1.05;;
37231;SDS011;23125;48.156;15.954;2024-02-15T04:02:54;3.58;;;1.48;;
37231;SDS011;23125;48.156;15.954;2024-02-15T04:05:22;2.30;;;1.33;;
37231;SDS011;23125;48.156;15.954;2024-02-15T04:07:48;2.85;;;2.20;;
37231;SDS011;23125;48.156;15.954;2024-02-15T04:10:14;2.58;;;1.42;;
37231;SDS011;23125;48.156;15.954;2024-02-15T04:12:43;4.40;;;1.80;;
37231;SDS011;23125;48.156;15.954;2024-02-15T04:15:09;4.90;;;2.47;;
37231;SDS011;23125;48.156;15.954;2024-02-15T04:17:39;4.20;;;3.00;;
37231;SDS011;23125;48.156;15.954;2024-02-15T04:20:07;5.82;;;3.72;;
37231;SDS011;23125;48.156;15.954;2024-02-15T04:22:35;5.88;;;4.18;;
37231;SDS011;23125;48.156;15.954;2024-02-15T04:25:06;3.47;;;2.42;;
37231;SDS011;23125;48.156;15.954;2024-02-15T04:27:41;4.53;;;2.63;;
37231;SDS011;23125;48.156;15.954;2024-02-15T04:30:08;7.05;;;4.28;;
37231;SDS011;23125;48.156;15.954;2024-02-15T04:32:36;7.57;;;5.00;;
37231;SDS011;23125;48.156;15.954;2024-02-15T04:35:02;8.40;;;5.85;;
37231;SDS011;23125;48.156;15.954;2024-02-15T04:37:29;6.07;;;4.30;;
37231;SDS011;23125;48.156;15.954;2024-02-15T04:39:58;8.85;;;5.07;;
37231;SDS011;23125;48.156;15.954;2024-02-15T04:42:31;10.05;;;5.25;;
37231;SDS011;23125;48.156;15.954;2024-02-15T04:44:59;6.28;;;4.90;;
37231;SDS011;23125;48.156;15.954;2024-02-15T04:47:25;6.50;;;4.85;;
37231;SDS011;23125;48.156;15.954;2024-02-15T04:49:51;5.55;;;4.13;;
37231;SDS011;23125;48.156;15.954;2024-02-15T04:52:17;9.02;;;5.03;;
37231;SDS011;23125;48.156;15.954;2024-02-15T04:54:43;6.30;;;4.95;;
37231;SDS011;23125;48.156;15.954;2024-02-15T04:57:10;9.90;;;5.43;;
37231;SDS011;23125;48.156;15.954;2024-02-15T04:59:37;7.57;;;5.82;;
37231;SDS011;23125;48.156;15.954;2024-02-15T05:02:03;6.97;;;3.55;;
37231;SDS011;23125;48.156;15.954;2024-02-15T05:04:29;6.65;;;4.47;;
37231;SDS011;23125;48.156;15.954;2024-02-15T05:06:54;7.95;;;5.45;;
37231;SDS011;23125;48.156;15.954;2024-02-15T05:09:21;8.75;;;5.95;;
37231;SDS011;23125;48.156;15.954;2024-02-15T05:11:48;5.90;;;4.35;;
37231;SDS011;23125;48.156;15.954;2024-02-15T05:14:14;7.57;;;4.35;;
37231;SDS011;23125;48.156;15.954;2024-02-15T05:16:46;5.82;;;4.50;;
37231;SDS011;23125;48.156;15.954;2024-02-15T05:19:16;6.25;;;3.95;;
37231;SDS011;23125;48.156;15.954;2024-02-15T05:21:43;5.07;;;3.70;;
37231;SDS011;23125;48.156;15.954;2024-02-15T05:24:13;4.75;;;2.88;;
37231;SDS011;23125;48.156;15.954;2024-02-15T05:26:40;3.90;;;2.78;;
37231;SDS011;23125;48.156;15.954;2024-02-15T05:29:11;5.07;;;3.13;;
37231;SDS011;23125;48.156;15.954;2024-02-15T05:31:38;3.50;;;3.03;;
37231;SDS011;23125;48.156;15.954;2024-02-15T05:34:06;4.57;;;2.70;;
37231;SDS011;23125;48.156;15.954;2024-02-15T05:36:33;2.28;;;1.50;;
37231;SDS011;23125;48.156;15.954;2024-02-15T05:39:00;3.58;;;1.90;;
37231;SDS011;23125;48.156;15.954;2024-02-15T05:41:27;3.10;;;1.75;;
37231;SDS011;23125;48.156;15.954;2024-02-15T05:43:54;4.10;;;2.20;;
37231;SDS011;23125;48.156;15.954;2024-02-15T05:46:23;2.03;;;1.65;;
37231;SDS011;23125;48.156;15.954;2024-02-15T05:48:49;3.42;;;1.67;;
37231;SDS011;23125;48.156;15.954;2024-02-15T05:51:19;5.78;;;1.90;;
37231;SDS011;23125;48.156;15.954;2024-02-15T05:53:45;4.07;;;2.05;;
37231;SDS011;23125;48.156;15.954;2024-02-15T05:56:11;3.00;;;1.40;;
37231;SDS011;23125;48.156;15.954;2024-02-15T05:58:37;3.05;;;1.60;;
37231;SDS011;23125;48.156;15.954;2024-02-15T06:01:05;3.45;;;1.83;;
37231;SDS011;23125;48.156;15.954;2024-02-15T06:03:37;3.50;;;1.83;;
37231;SDS011;23125;48.156;15.954;2024-02-15T06:06:04;3.08;;;1.63;;
37231;SDS011;23125;48.156;15.954;2024-02-15T06:08:32;3.05;;;1.90;;
37231;SDS011;23125;48.156;15.954;2024-02-15T06:10:58;2.28;;;1.50;;
37231;SDS011;23125;48.156;15.954;2024-02-15T06:13:25;1.88;;;1.58;;
37231;SDS011;23125;48.156;15.954;2024-02-15T06:15:52;4.35;;;1.73;;
37231;SDS011;23125;48.156;15.954;2024-02-15T06:18:19;4.20;;;1.48;;
37231;SDS011;23125;48.156;15.954;2024-02-15T06:20:54;2.00;;;1.20;;
37231;SDS011;23125;48.156;15.954;2024-02-15T06:23:24;3.40;;;1.67;;
37231;SDS011;23125;48.156;15.954;2024-02-15T06:25:53;3.03;;;1.63;;
37231;SDS011;23125;48.156;15.954;2024-02-15T06:28:21;1.92;;;1.40;;
37231;SDS011;23125;48.156;15.954;2024-02-15T06:31:07;1.65;;;1.20;;
37231;SDS011;23125;48.156;15.954;2024-02-15T06:33:52;1.83;;;1.23;;
37231;SDS011;23125;48.156;15.954;2024-02-15T06:39:31;1.27;;;1.00;;
37231;SDS011;23125;48.156;15.954;2024-02-15T06:42:06;2.60;;;1.48;;
37231;SDS011;23125;48.156;15.954;2024-02-15T06:44:37;2.90;;;1.60;;
37231;SDS011;23125;48.156;15.954;2024-02-15T06:47:06;4.75;;;2.53;;
37231;SDS011;23125;48.156;15.954;2024-02-15T06:49:35;4.00;;;2.23;;
37231;SDS011;23125;48.156;15.954;2024-02-15T06:52:00;6.18;;;3.10;;
37231;SDS011;23125;48.156;15.954;2024-02-15T06:54:28;6.40;;;2.72;;
37231;SDS011;23125;48.156;15.954;2024-02-15T06:56:54;14.52;;;7.05;;
37231;SDS011;23125;48.156;15.954;2024-02-15T06:59:20;15.80;;;8.43;;
37231;SDS011;23125;48.156;15.954;2024-02-15T07:01:49;15.00;;;7.22;;
37231;SDS011;23125;48.156;15.954;2024-02-15T07:06:44;7.80;;;3.22;;
37231;SDS011;23125;48.156;15.954;2024-02-15T07:09:13;6.22;;;3.38;;
37231;SDS011;23125;48.156;15.954;2024-02-15T07:11:44;9.27;;;5.13;;
37231;SDS011;23125;48.156;15.954;2024-02-15T07:14:14;11.63;;;5.28;;
37231;SDS011;23125;48.156;15.954;2024-02-15T07:21:37;9.65;;;4.85;;
37231;SDS011;23125;48.156;15.954;2024-02-15T07:24:03;7.90;;;4.53;;
37231;SDS011;23125;48.156;15.954;2024-02-15T07:26:30;7.93;;;4.78;;
37231;SDS011;23125;48.156;15.954;2024-02-15T07:28:56;7.47;;;4.30;;
37231;SDS011;23125;48.156;15.954;2024-02-15T07:31:22;4.22;;;2.83;;
37231;SDS011;23125;48.156;15.954;2024-02-15T07:33:52;3.85;;;1.95;;
37231;SDS011;23125;48.156;15.954;2024-02-15T07:36:19;5.65;;;2.58;;
37231;SDS011;23125;48.156;15.954;2024-02-15T07:38:49;3.92;;;2.03;;
37231;SDS011;23125;48.156;15.954;2024-02-15T07:41:17;4.35;;;1.67;;
37231;SDS011;23125;48.156;15.954;2024-02-15T07:43:45;4.78;;;2.10;;
37231;SDS011;23125;48.156;15.954;2024-02-15T07:46:12;3.33;;;2.17;;
37231;SDS011;23125;48.156;15.954;2024-02-15T07:48:39;6.22;;;1.95;;
37231;SDS011;23125;48.156;15.954;2024-02-15T07:51:10;5.93;;;2.10;;
37231;SDS011;23125;48.156;15.954;2024-02-15T07:53:40;4.07;;;2.17;;
37231;SDS011;23125;48.156;15.954;2024-02-15T07:56:11;5.53;;;2.17;;
37231;SDS011;23125;48.156;15.954;2024-02-15T07:58:41;4.95;;;2.10;;
37231;SDS011;23125;48.156;15.954;2024-02-15T08:01:14;3.67;;;1.92;;
37231;SDS011;23125;48.156;15.954;2024-02-15T08:03:41;4.43;;;2.08;;
37231;SDS011;23125;48.156;15.954;2024-02-15T08:06:11;3.67;;;2.70;;
37231;SDS011;23125;48.156;15.954;2024-02-15T08:08:38;3.50;;;2.33;;
37231;SDS011;23125;48.156;15.954;2024-02-15T08:11:06;3.33;;;2.67;;
37231;SDS011;23125;48.156;15.954;2024-02-15T08:13:49;7.30;;;3.90;;
37231;SDS011;23125;48.156;15.954;2024-02-15T08:16:20;23.10;;;13.55;;
37231;SDS011;23125;48.156;15.954;2024-02-15T08:18:52;13.98;;;9.00;;
37231;SDS011;23125;48.156;15.954;2024-02-15T08:21:29;7.88;;;5.13;;
37231;SDS011;23125;48.156;15.954;2024-02-15T08:23:58;4.97;;;3.28;;
37231;SDS011;23125;48.156;15.954;2024-02-15T08:26:32;4.65;;;3.53;;
37231;SDS011;23125;48.156;15.954;2024-02-15T08:28:58;4.72;;;2.55;;
37231;SDS011;23125;48.156;15.954;2024-02-15T08:31:24;4.68;;;2.58;;
37231;SDS011;23125;48.156;15.954;2024-02-15T08:33:50;4.45;;;2.30;;
37231;SDS011;23125;48.156;15.954;2024-02-15T08:36:16;4.45;;;2.40;;
37231;SDS011;23125;48.156;15.954;2024-02-15T08:38:42;8.38;;;4.22;;
37231;SDS011;23125;48.156;15.954;2024-02-15T08:41:08;5.80;;;3.30;;
37231;SDS011;23125;48.156;15.954;2024-02-15T08:43:36;4.95;;;2.17;;
37231;SDS011;23125;48.156;15.954;2024-02-15T08:46:05;3.58;;;2.55;;
37231;SDS011;23125;48.156;15.954;2024-02-15T08:48:32;10.93;;;3.45;;
37231;SDS011;23125;48.156;15.954;2024-02-15T08:50:58;7.63;;;3.55;;
37231;SDS011;23125;48.156;15.954;2024-02-15T08:53:24;4.75;;;3.38;;
37231;SDS011;23125;48.156;15.954;2024-02-15T08:55:51;5.03;;;2.80;;
37231;SDS011;23125;48.156;15.954;2024-02-15T08:58:18;4.65;;;2.65;;
37231;SDS011;23125;48.156;15.954;2024-02-15T09:00:46;3.88;;;2.08;;
37231;SDS011;23125;48.156;15.954;2024-02-15T09:03:12;4.10;;;2.20;;
37231;SDS011;23125;48.156;15.954;2024-02-15T09:05:39;2.83;;;1.50;;
37231;SDS011;23125;48.156;15.954;2024-02-15T09:08:08;5.22;;;1.90;;
37231;SDS011;23125;48.156;15.954;2024-02-15T09:10:34;1.88;;;1.17;;
37231;SDS011;23125;48.156;15.954;2024-02-15T09:13:01;2.33;;;1.15;;
37231;SDS011;23125;48.156;15.954;2024-02-15T09:15:27;3.80;;;1.20;;
37231;SDS011;23125;48.156;15.954;2024-02-15T09:17:55;3.17;;;1.05;;
37231;SDS011;23125;48.156;15.954;2024-02-15T09:20:23;4.15;;;1.20;;
37231;SDS011;23125;48.156;15.954;2024-02-15T09:22:54;3.40;;;1.27;;
37231;SDS011;23125;48.156;15.954;2024-02-15T09:25:22;2.15;;;1.13;;
37231;SDS011;23125;48.156;15.954;2024-02-15T09:27:49;2.22;;;1.20;;
37231;SDS011;23125;48.156;15.954;2024-02-15T09:30:15;1.73;;;1.20;;
37231;SDS011;23125;48.156;15.954;2024-02-15T09:32:42;2.08;;;1.27;;
37231;SDS011;23125;48.156;15.954;2024-02-15T09:35:09;1.17;;;1.08;;
37231;SDS011;23125;48.156;15.954;2024-02-15T09:37:44;3.25;;;1.95;;
37231;SDS011;23125;48.156;15.954;2024-02-15T09:40:11;2.72;;;1.45;;
37231;SDS011;23125;48.156;15.954;2024-02-15T09:42:38;4.03;;;1.90;;
37231;SDS011;23125;48.156;15.954;2024-02-15T09:45:05;3.58;;;1.70;;
37231;SDS011;23125;48.156;15.954;2024-02-15T09:47:35;2.67;;;1.20;;
37231;SDS011;23125;48.156;15.954;2024-02-15T09:50:08;3.88;;;1.63;;
37231;SDS011;23125;48.156;15.954;2024-02-15T09:52:38;2.28;;;1.38;;
37231;SDS011;23125;48.156;15.954;2024-02-15T09:55:10;9.10;;;4.75;;
37231;SDS011;23125;48.156;15.954;2024-02-15T09:57:42;4.60;;;2.10;;
37231;SDS011;23125;48.156;15.954;2024-02-15T10:00:10;5.95;;;2.50;;
37231;SDS011;23125;48.156;15.954;2024-02-15T10:02:41;4.72;;;2.58;;
37231;SDS011;23125;48.156;15.954;2024-02-15T10:05:12;15.27;;;6.30;;
37231;SDS011;23125;48.156;15.954;2024-02-15T10:07:38;9.52;;;4.35;;
37231;SDS011;23125;48.156;15.954;2024-02-15T10:10:16;6.25;;;2.70;;
37231;SDS011;23125;48.156;15.954;2024-02-15T10:12:48;4.07;;;1.73;;
37231;SDS011;23125;48.156;15.954;2024-02-15T10:15:27;2.20;;;1.30;;
37231;SDS011;23125;48.156;15.954;2024-02-15T10:17:56;2.10;;;1.05;;
37231;SDS011;23125;48.156;15.954;2024-02-15T10:20:25;4.75;;;1.40;;
37231;SDS011;23125;48.156;15.954;2024-02-15T10:25:23;5.43;;;1.95;;
37231;SDS011;23125;48.156;15.954;2024-02-15T10:28:04;4.35;;;1.45;;
37231;SDS011;23125;48.156;15.954;2024-02-15T10:30:34;29.60;;;8.73;;
37231;SDS011;23125;48.156;15.954;2024-02-15T10:33:06;1.20;;;0.52;;
37231;SDS011;23125;48.156;15.954;2024-02-15T10:35:35;21.17;;;6.88;;
37231;SDS011;23125;48.156;15.954;2024-02-15T10:38:05;15.98;;;5.85;;
37231;SDS011;23125;48.156;15.954;2024-02-15T10:40:39;3.08;;;1.00;;
37231;SDS011;23125;48.156;15.954;2024-02-15T10:43:08;2.28;;;1.50;;
37231;SDS011;23125;48.156;15.954;2024-02-15T10:45:38;4.38;;;2.05;;
37231;SDS011;23125;48.156;15.954;2024-02-15T10:48:09;2.63;;;1.20;;
37231;SDS011;23125;48.156;15.954;2024-02-15T10:50:36;2.30;;;1.17;;
37231;SDS011;23125;48.156;15.954;2024-02-15T10:53:13;3.30;;;1.20;;
37231;SDS011;23125;48.156;15.954;2024-02-15T10:56:08;1.33;;;0.70;;
37231;SDS011;23125;48.156;15.954;2024-02-15T10:58:46;1.10;;;0.60;;
37231;SDS011;23125;48.156;15.954;2024-02-15T11:01:17;1.05;;;0.77;;
37231;SDS011;23125;48.156;15.954;2024-02-15T11:03:50;2.50;;;1.20;;
37231;SDS011;23125;48.156;15.954;2024-02-15T11:06:21;1.77;;;0.60;;
37231;SDS011;23125;48.156;15.954;2024-02-15T11:08:51;2.53;;;0.75;;
37231;SDS011;23125;48.156;15.954;2024-02-15T11:11:19;1.45;;;0.80;;
37231;SDS011;23125;48.156;15.954;2024-02-15T11:13:48;1.10;;;0.80;;
37231;SDS011;23125;48.156;15.954;2024-02-15T11:19:06;1.30;;;0.65;;
37231;SDS011;23125;48.156;15.954;2024-02-15T11:24:29;0.85;;;0.60;;
37231;SDS011;23125;48.156;15.954;2024-02-15T11:27:04;1.23;;;0.77;;
37231;SDS011;23125;48.156;15.954;2024-02-15T11:29:48;1.20;;;0.77;;
37231;SDS011;23125;48.156;15.954;2024-02-15T11:32:34;2.10;;;1.27;;
37231;SDS011;23125;48.156;15.954;2024-02-15T11:37:49;1.80;;;0.95;;
37231;SDS011;23125;48.156;15.954;2024-02-15T11:40:19;2.22;;;0.80;;
37231;SDS011;23125;48.156;15.954;2024-02-15T11:42:49;1.80;;;0.82;;
37231;SDS011;23125;48.156;15.954;2024-02-15T11:45:18;3.15;;;1.45;;
37231;SDS011;23125;48.156;15.954;2024-02-15T11:47:51;1.65;;;1.00;;
37231;SDS011;23125;48.156;15.954;2024-02-15T11:50:22;2.42;;;1.30;;
37231;SDS011;23125;48.156;15.954;2024-02-15T11:52:48;2.53;;;1.10;;
37231;SDS011;23125;48.156;15.954;2024-02-15T11:55:22;2.17;;;1.20;;
37231;SDS011;23125;48.156;15.954;2024-02-15T11:57:57;1.75;;;1.10;;
37231;SDS011;23125;48.156;15.954;2024-02-15T12:00:42;2.30;;;1.30;;
37231;SDS011;23125;48.156;15.954;2024-02-15T12:03:27;2.47;;;1.13;;
37231;SDS011;23125;48.156;15.954;2024-02-15T12:06:12;3.60;;;1.30;;
37231;SDS011;23125;48.156;15.954;2024-02-15T12:09:01;2.03;;;0.88;;
37231;SDS011;23125;48.156;15.954;2024-02-15T12:11:46;1.33;;;0.98;;
37231;SDS011;23125;48.156;15.954;2024-02-15T12:14:31;2.17;;;1.10;;
37231;SDS011;23125;48.156;15.954;2024-02-15T12:17:15;1.90;;;1.10;;
37231;SDS011;23125;48.156;15.954;2024-02-15T12:20:00;3.40;;;1.33;;
37231;SDS011;23125;48.156;15.954;2024-02-15T12:22:36;2.83;;;1.38;;
37231;SDS011;23125;48.156;15.954;2024-02-15T12:25:06;3.38;;;1.40;;
37231;SDS011;23125;48.156;15.954;2024-02-15T12:27:42;1.50;;;0.93;;
37231;SDS011;23125;48.156;15.954;2024-02-15T12:30:14;1.80;;;1.02;;
37231;SDS011;23125;48.156;15.954;2024-02-15T12:32:50;3.50;;;1.33;;
37231;SDS011;23125;48.156;15.954;2024-02-15T12:35:21;1.88;;;1.13;;
37231;SDS011;23125;48.156;15.954;2024-02-15T12:38:00;1.45;;;1.00;;
37231;SDS011;23125;48.156;15.954;2024-02-15T12:40:33;2.22;;;1.00;;
37231;SDS011;23125;48.156;15.954;2024-02-15T12:43:04;1.33;;;0.90;;
37231;SDS011;23125;48.156;15.954;2024-02-15T12:45:31;1.35;;;0.80;;
37231;SDS011;23125;48.156;15.954;2024-02-15T12:48:05;4.20;;;2.30;;
37231;SDS011;23125;48.156;15.954;2024-02-15T12:50:36;2.08;;;1.13;;
37231;SDS011;23125;48.156;15.954;2024-02-15T12:53:02;2.45;;;0.77;;
37231;SDS011;23125;48.156;15.954;2024-02-15T12:55:38;1.38;;;0.77;;
37231;SDS011;23125;48.156;15.954;2024-02-15T12:58:06;4.90;;;2.58;;
37231;SDS011;23125;48.156;15.954;2024-02-15T13:00:39;2.83;;;1.17;;
37231;SDS011;23125;48.156;15.954;2024-02-15T13:03:05;7.43;;;1.30;;
37231;SDS011;23125;48.156;15.954;2024-02-15T13:05:35;1.42;;;0.73;;
37231;SDS011;23125;48.156;15.954;2024-02-15T13:08:03;1.02;;;0.55;;
37231;SDS011;23125;48.156;15.954;2024-02-15T13:10:35;1.08;;;0.70;;
37231;SDS011;23125;48.156;15.954;2024-02-15T13:13:04;0.85;;;0.60;;
37231;SDS011;23125;48.156;15.954;2024-02-15T13:15:31;3.22;;;0.70;;
37231;SDS011;23125;48.156;15.954;2024-02-15T13:17:59;2.03;;;0.70;;
37231;SDS011;23125;48.156;15.954;2024-02-15T13:20:26;1.83;;;1.15;;
37231;SDS011;23125;48.156;15.954;2024-02-15T13:22:57;1.60;;;0.90;;
37231;SDS011;23125;48.156;15.954;2024-02-15T13:25:33;2.88;;;2.05;;
37231;SDS011;23125;48.156;15.954;2024-02-15T13:27:59;1.27;;;0.80;;
37231;SDS011;23125;48.156;15.954;2024-02-15T13:30:25;1.27;;;0.52;;
37231;SDS011;23125;48.156;15.954;2024-02-15T13:32:53;1.05;;;0.50;;
37231;SDS011;23125;48.156;15.954;2024-02-15T13:35:22;1.17;;;0.60;;
37231;SDS011;23125;48.156;15.954;2024-02-15T13:37:51;1.00;;;0.40;;
37231;SDS011;23125;48.156;15.954;2024-02-15T13:40:26;1.05;;;0.50;;
37231;SDS011;23125;48.156;15.954;2024-02-15T13:42:56;1.48;;;0.60;;
37231;SDS011;23125;48.156;15.954;2024-02-15T13:48:19;0.75;;;0.57;;
37231;SDS011;23125;48.156;15.954;2024-02-15T13:50:45;1.85;;;0.70;;
37231;SDS011;23125;48.156;15.954;2024-02-15T13:53:11;2.33;;;0.60;;
37231;SDS011;23125;48.156;15.954;2024-02-15T13:55:39;2.05;;;0.93;;
37231;SDS011;23125;48.156;15.954;2024-02-15T13:58:05;1.65;;;0.60;;
37231;SDS011;23125;48.156;15.954;2024-02-15T14:00:33;0.73;;;0.43;;
37231;SDS011;23125;48.156;15.954;2024-02-15T14:03:00;1.20;;;0.50;;
37231;SDS011;23125;48.156;15.954;2024-02-15T14:05:28;1.30;;;0.40;;
37231;SDS011;23125;48.156;15.954;2024-02-15T14:07:55;0.95;;;0.40;;
37231;SDS011;23125;48.156;15.954;2024-02-15T14:10:23;1.65;;;0.40;;
37231;SDS011;23125;48.156;15.954;2024-02-15T14:12:54;1.23;;;0.60;;
37231;SDS011;23125;48.156;15.954;2024-02-15T14:15:23;0.80;;;0.30;;
37231;SDS011;23125;48.156;15.954;2024-02-15T14:17:51;1.20;;;0.50;;
37231;SDS011;23125;48.156;15.954;2024-02-15T14:20:17;3.22;;;0.65;;
37231;SDS011;23125;48.156;15.954;2024-02-15T14:22:46;0.77;;;0.40;;
37231;SDS011;23125;48.156;15.954;2024-02-15T14:25:23;1.25;;;0.50;;
37231;SDS011;23125;48.156;15.954;2024-02-15T14:27:56;0.60;;;0.40;;
37231;SDS011;23125;48.156;15.954;2024-02-15T14:30:23;1.65;;;0.40;;
37231;SDS011;23125;48.156;15.954;2024-02-15T14:33:11;0.90;;;0.50;;
37231;SDS011;23125;48.156;15.954;2024-02-15T14:35:41;0.90;;;0.30;;
37231;SDS011;23125;48.156;15.954;2024-02-15T14:38:11;0.63;;;0.20;;
37231;SDS011;23125;48.156;15.954;2024-02-15T14:40:42;1.20;;;0.30;;
37231;SDS011;23125;48.156;15.954;2024-02-15T14:43:31;1.15;;;0.30;;
37231;SDS011;23125;48.156;15.954;2024-02-15T14:45:58;1.65;;;0.28;;
37231;SDS011;23125;48.156;15.954;2024-02-15T14:48:30;0.60;;;0.35;;
37231;SDS011;23125;48.156;15.954;2024-02-15T14:50:57;1.02;;;0.30;;
37231;SDS011;23125;48.156;15.954;2024-02-15T14:53:23;0.57;;;0.30;;
37231;SDS011;23125;48.156;15.954;2024-02-15T14:55:49;0.68;;;0.30;;
37231;SDS011;23125;48.156;15.954;2024-02-15T14:58:17;1.10;;;0.20;;
37231;SDS011;23125;48.156;15.954;2024-02-15T15:00:43;1.08;;;0.30;;
37231;SDS011;23125;48.156;15.954;2024-02-15T15:03:10;1.15;;;0.20;;
37231;SDS011;23125;48.156;15.954;2024-02-15T15:05:40;0.52;;;0.20;;
37231;SDS011;23125;48.156;15.954;2024-02-15T15:08:28;0.60;;;0.28;;
37231;SDS011;23125;48.156;15.954;2024-02-15T15:11:23;0.80;;;0.32;;
37231;SDS011;23125;48.156;15.954;2024-02-15T15:14:07;1.38;;;0.20;;